Time;durP1;ratioP1;P1;durP2;ratioP2;P2;SDS_P1;SDS_P2;PMS_P1;PMS_P2;Temp;Humidity;BMP_temperature;BMP_pressure;BME280_temperature;BME280_humidity;BME280_pressure;Samples;Min_cycle;Max_cycle;Signal;HPM_P1;HPM_P2
2022/09/09 00:00:07;;;;;;;3.90;3.60;;;;;;;11.71;100.00;96830.16;4970765;28;20213;-52
2022/09/09 00:02:36;;;;;;;4.13;3.93;;;;;;;11.76;100.00;96824.25;5002604;28;20232;-58
2022/09/09 00:05:15;;;;;;;4.30;3.90;;;;;;;11.72;100.00;96820.38;5002494;28;20218;-58
2022/09/09 00:07:48;;;;;;;4.60;4.20;;;;;;;11.71;100.00;96826.69;4957388;28;20219;-57
2022/09/09 00:10:22;;;;;;;6.20;4.00;;;;;;;11.63;100.00;96818.91;5008006;28;20659;-59
2022/09/09 00:12:58;;;;;;;4.33;3.90;;;;;;;11.66;100.00;96816.66;5002695;28;20304;-54
2022/09/09 00:15:31;;;;;;;4.33;3.97;;;;;;;11.67;100.00;96820.16;4965433;28;20219;-56
2022/09/09 00:18:03;;;;;;;4.07;3.77;;;;;;;11.63;100.00;96810.97;4998990;28;20430;-56
2022/09/09 00:20:36;;;;;;;5.83;4.53;;;;;;;11.69;100.00;96816.25;5001624;28;20210;-56
2022/09/09 00:23:14;;;;;;;4.83;4.10;;;;;;;11.76;100.00;96812.84;4953853;28;20240;-58
2022/09/09 00:25:49;;;;;;;5.93;4.63;;;;;;;11.76;100.00;96808.31;5000620;28;20311;-59
2022/09/09 00:28:21;;;;;;;5.67;5.17;;;;;;;11.74;100.00;96810.38;5001443;28;20205;-52
2022/09/09 00:30:49;;;;;;;4.90;4.47;;;;;;;11.78;100.00;96808.13;4965858;28;20367;-59
2022/09/09 00:33:21;;;;;;;4.97;4.57;;;;;;;11.76;100.00;96810.97;4999748;28;20215;-55
2022/09/09 00:35:51;;;;;;;5.50;5.10;;;;;;;11.81;100.00;96811.19;5002632;28;20607;-56
2022/09/09 00:38:25;;;;;;;4.90;4.60;;;;;;;11.81;100.00;96807.72;4956157;28;20235;-59
2022/09/09 00:40:58;;;;;;;4.50;4.20;;;;;;;11.71;100.00;96805.47;4999848;28;20397;-57
2022/09/09 00:43:31;;;;;;;5.10;4.70;;;;;;;11.70;100.00;96807.28;5004136;28;20463;-56
2022/09/09 00:46:22;;;;;;;5.23;4.80;;;;;;;11.77;100.00;96815.28;4943167;28;20243;-56
2022/09/09 00:48:59;;;;;;;6.33;5.67;;;;;;;11.67;100.00;96807.69;4974561;28;20428;-54
2022/09/09 00:51:34;;;;;;;7.27;6.60;;;;;;;11.78;100.00;96803.63;5003794;28;20229;-55
2022/09/09 00:54:25;;;;;;;17.03;7.20;;;;;;;11.82;100.00;96804.88;4953114;28;21869;-56
2022/09/09 00:57:01;;;;;;;13.23;7.57;;;;;;;11.88;100.00;96803.25;4926825;28;20216;-59
2022/09/09 00:59:36;;;;;;;12.03;6.97;;;;;;;11.99;100.00;96807.97;5006317;28;20216;-58
2022/09/09 01:02:09;;;;;;;10.03;5.90;;;;;;;11.92;100.00;96814.25;5006496;28;20828;-53
2022/09/09 01:04:38;;;;;;;7.60;6.90;;;;;;;11.93;100.00;96814.06;4981945;28;20793;-55
2022/09/09 01:07:13;;;;;;;8.30;6.60;;;;;;;12.00;100.00;96809.63;5003029;28;20712;-54
2022/09/09 01:09:53;;;;;;;8.03;7.33;;;;;;;11.97;100.00;96815.31;5005025;28;20231;-55
2022/09/09 01:12:27;;;;;;;8.23;7.37;;;;;;;11.92;100.00;96822.22;4955294;28;20330;-54
2022/09/09 01:15:03;;;;;;;7.67;7.03;;;;;;;11.91;100.00;96821.44;5005187;28;20736;-56
2022/09/09 01:17:35;;;;;;;7.37;6.80;;;;;;;11.95;100.00;96819.19;5004292;28;20235;-59
2022/09/09 01:20:09;;;;;;;8.13;6.90;;;;;;;11.90;100.00;96821.63;4973472;28;20884;-51
2022/09/09 01:22:42;;;;;;;10.97;7.93;;;;;;;11.95;100.00;96820.00;4999932;28;20620;-58
2022/09/09 01:25:21;;;;;;;9.13;8.07;;;;;;;11.92;100.00;96812.44;5004348;28;20896;-58
2022/09/09 01:27:53;;;;;;;7.93;7.10;;;;;;;11.87;100.00;96821.00;4950444;28;20275;-55
2022/09/09 01:30:23;;;;;;;8.53;7.57;;;;;;;11.90;100.00;96818.97;5006793;28;20216;-59
2022/09/09 01:32:55;;;;;;;7.27;6.77;;;;;;;11.98;100.00;96811.63;5002618;28;20225;-60
2022/09/09 01:35:36;;;;;;;7.30;6.80;;;;;;;11.98;100.00;96821.44;4980649;28;20224;-56
2022/09/09 01:38:04;;;;;;;7.17;6.60;;;;;;;11.89;100.00;96807.53;5001350;28;20200;-56
2022/09/09 01:40:33;;;;;;;6.77;6.17;;;;;;;11.83;100.00;96809.16;4976121;28;20211;-62
2022/09/09 01:43:02;;;;;;;6.50;5.93;;;;;;;11.86;100.00;96805.28;4953007;28;20325;-54
2022/09/09 01:45:31;;;;;;;7.07;6.37;;;;;;;11.91;100.00;96805.50;4998733;28;20220;-55
2022/09/09 01:48:02;;;;;;;6.73;6.23;;;;;;;11.91;100.00;96807.31;5002258;28;20642;-55
2022/09/09 01:50:31;;;;;;;7.53;6.83;;;;;;;11.99;100.00;96807.16;4979335;28;20231;-58
2022/09/09 01:53:00;;;;;;;6.20;5.80;;;;;;;11.94;100.00;96801.63;4997435;28;20236;-56
2022/09/09 01:55:31;;;;;;;6.43;5.93;;;;;;;11.91;100.00;96805.50;5003681;28;20209;-59
2022/09/09 01:58:12;;;;;;;6.80;6.20;;;;;;;11.78;100.00;96800.97;4953383;28;20213;-58
2022/09/09 02:00:45;;;;;;;6.70;6.30;;;;;;;11.77;100.00;96803.84;5005052;28;20200;-59
2022/09/09 02:03:21;;;;;;;7.37;6.57;;;;;;;11.74;100.00;96810.38;4999739;28;20331;-53
2022/09/09 02:05:56;;;;;;;6.73;6.23;;;;;;;11.67;100.00;96814.84;4974111;28;20671;-55
2022/09/09 02:08:27;;;;;;;6.90;6.10;;;;;;;11.80;100.00;96814.06;5001730;28;20204;-53
2022/09/09 02:11:00;;;;;;;6.80;6.20;;;;;;;11.73;100.00;96811.38;4964672;28;20974;-53
2022/09/09 02:13:31;;;;;;;8.23;7.43;;;;;;;11.50;100.00;96809.88;4986850;28;20633;-57
2022/09/09 02:16:03;;;;;;;7.43;6.93;;;;;;;11.52;100.00;96813.16;4983171;28;20361;-56
2022/09/09 02:18:36;;;;;;;6.80;6.30;;;;;;;11.57;100.00;96818.69;5000049;28;20223;-59
2022/09/09 02:21:05;;;;;;;6.50;6.10;;;;;;;11.48;100.00;96811.91;4982680;28;20215;-57
2022/09/09 02:23:34;;;;;;;7.63;6.93;;;;;;;11.35;100.00;96815.31;4964564;28;20212;-59
2022/09/09 02:26:03;;;;;;;8.40;6.90;;;;;;;11.33;100.00;96809.41;5006050;28;20205;-56
2022/09/09 02:28:34;;;;;;;7.43;6.90;;;;;;;11.31;100.00;96810.63;4973843;28;20919;-59
2022/09/09 02:31:03;;;;;;;10.03;6.37;;;;;;;11.23;100.00;96808.97;4949669;28;20231;-58
2022/09/09 02:33:35;;;;;;;8.37;7.53;;;;;;;11.20;100.00;96809.34;4998659;28;22431;-60
2022/09/09 02:36:06;;;;;;;8.03;7.10;;;;;;;11.20;100.00;96815.50;5005327;28;20208;-59
2022/09/09 02:38:37;;;;;;;12.13;8.53;;;;;;;11.21;100.00;96814.47;4978484;28;20220;-58
2022/09/09 02:41:06;;;;;;;12.70;8.10;;;;;;;11.24;100.00;96813.25;5005754;28;20219;-57
2022/09/09 02:43:36;;;;;;;9.23;8.03;;;;;;;11.29;100.00;96811.66;4979149;28;20212;-58
2022/09/09 02:46:12;;;;;;;8.00;7.27;;;;;;;11.28;100.00;96815.31;4951078;28;20220;-55
2022/09/09 02:48:48;;;;;;;7.77;7.07;;;;;;;11.31;100.00;96800.03;4997465;28;20204;-57
2022/09/09 02:51:19;;;;;;;10.57;7.90;;;;;;;11.29;100.00;96803.69;5005826;28;20234;-60
2022/09/09 02:53:51;;;;;;;8.07;7.40;;;;;;;11.27;100.00;96805.72;4978992;28;20204;-59
2022/09/09 02:56:21;;;;;;;8.60;7.90;;;;;;;11.32;100.00;96806.97;5004537;28;20228;-60
2022/09/09 02:58:51;;;;;;;8.50;7.90;;;;;;;11.37;100.00;96804.53;4978016;28;21515;-57
2022/09/09 03:01:20;;;;;;;9.73;8.67;;;;;;;11.34;100.00;96810.25;4953184;28;20239;-60
2022/09/09 03:03:48;;;;;;;12.67;8.67;;;;;;;11.41;100.00;96803.13;4937749;28;20228;-56
2022/09/09 03:06:16;;;;;;;9.17;8.37;;;;;;;11.47;100.00;96804.97;4980106;28;20318;-56
2022/09/09 03:08:45;;;;;;;8.83;8.03;;;;;;;11.48;100.00;96798.66;5002478;28;20208;-60
2022/09/09 03:11:16;;;;;;;10.70;8.97;;;;;;;11.43;100.00;96795.78;4977994;28;20375;-55
2022/09/09 03:13:45;;;;;;;15.73;14.23;;;;;;;11.49;100.00;96791.53;4963946;28;20460;-60
2022/09/09 03:16:14;;;;;;;14.87;11.87;;;;;;;11.50;100.00;96793.97;4997020;28;20781;-61
2022/09/09 03:18:45;;;;;;;16.07;11.90;;;;;;;11.62;100.00;96798.72;4946988;28;20705;-58
2022/09/09 03:21:14;;;;;;;23.37;13.00;;;;;;;11.68;100.00;96797.91;4969155;28;20224;-60
2022/09/09 03:23:42;;;;;;;37.33;13.23;;;;;;;11.69;100.00;96796.88;4998822;28;20400;-59
2022/09/09 03:26:10;;;;;;;40.37;14.83;;;;;;;11.75;100.00;96806.69;4947203;28;20208;-54
2022/09/09 03:28:39;;;;;;;28.83;12.00;;;;;;;11.75;100.00;96801.38;4971116;28;20208;-57
2022/09/09 03:31:10;;;;;;;15.67;11.77;;;;;;;11.67;100.00;96799.72;4982188;28;20242;-58
2022/09/09 03:33:41;;;;;;;21.77;10.97;;;;;;;11.70;100.00;96801.97;4945395;28;20826;-57
2022/09/09 03:36:10;;;;;;;18.50;11.43;;;;;;;11.66;100.00;96805.25;4967174;28;20587;-57
2022/09/09 03:38:38;;;;;;;28.73;10.97;;;;;;;11.54;100.00;96805.00;5003245;28;20327;-59
2022/09/09 03:41:07;;;;;;;32.73;11.20;;;;;;;11.49;100.00;96808.25;5003859;28;20201;-58
2022/09/09 03:43:37;;;;;;;22.23;9.80;;;;;;;11.49;100.00;96802.94;4973335;28;20549;-57
2022/09/09 03:46:05;;;;;;;14.43;10.20;;;;;;;11.40;100.00;96806.78;5004332;28;20201;-56
2022/09/09 03:48:34;;;;;;;11.17;9.17;;;;;;;11.40;100.00;96810.28;4980668;28;20217;-58
2022/09/09 03:51:03;;;;;;;9.80;8.90;;;;;;;11.44;100.00;96810.69;4959006;28;20286;-56
2022/09/09 03:53:33;;;;;;;10.60;9.60;;;;;;;11.33;100.00;96804.09;4999568;28;20202;-60
2022/09/09 03:56:01;;;;;;;11.17;10.27;;;;;;;11.28;100.00;96795.91;5004357;28;20845;-58
2022/09/09 03:58:29;;;;;;;11.37;10.20;;;;;;;11.25;100.00;96801.63;4964057;28;21124;-58
2022/09/09 04:00:59;;;;;;;10.27;9.37;;;;;;;11.28;100.00;96795.91;4990793;28;20204;-59
2022/09/09 04:03:28;;;;;;;11.77;9.90;;;;;;;11.20;100.00;96788.97;4979937;28;20539;-60
2022/09/09 04:05:58;;;;;;;11.90;10.70;;;;;;;11.18;100.00;96796.31;4953036;28;20219;-56
2022/09/09 04:08:27;;;;;;;10.90;10.03;;;;;;;11.19;100.00;96800.59;5002136;28;20224;-56
2022/09/09 04:10:57;;;;;;;12.40;11.13;;;;;;;11.26;100.00;96796.13;5002662;28;20333;-56
2022/09/09 04:13:26;;;;;;;11.63;10.57;;;;;;;11.18;100.00;96798.97;4979961;28;20615;-57
2022/09/09 04:15:55;;;;;;;11.93;10.87;;;;;;;11.17;100.00;96789.34;4998070;28;20414;-57
2022/09/09 04:18:25;;;;;;;12.97;11.83;;;;;;;11.21;100.00;96803.88;4980454;28;20493;-55
2022/09/09 04:20:54;;;;;;;12.97;11.77;;;;;;;11.25;100.00;96791.84;5003024;28;20227;-58
2022/09/09 04:23:23;;;;;;;13.50;12.37;;;;;;;11.31;100.00;96813.28;4952854;28;20217;-57
2022/09/09 04:25:54;;;;;;;12.37;11.30;;;;;;;11.34;100.00;96813.69;5001762;28;20403;-59
2022/09/09 04:28:25;;;;;;;14.20;12.90;;;;;;;11.28;100.00;96820.63;4979921;28;20231;-56
2022/09/09 04:30:54;;;;;;;14.57;13.27;;;;;;;11.40;100.00;96815.56;5003358;28;20342;-56
2022/09/09 04:33:22;;;;;;;15.40;13.90;;;;;;;11.38;100.00;96814.13;5007929;28;20212;-56
2022/09/09 04:35:53;;;;;;;14.43;13.13;;;;;;;11.32;100.00;96820.22;4984190;28;20537;-56
2022/09/09 04:38:22;;;;;;;15.30;13.77;;;;;;;11.25;100.00;96813.06;4959954;28;20223;-58
2022/09/09 04:40:53;;;;;;;15.00;13.73;;;;;;;11.22;100.00;96810.81;5005816;28;20458;-56
2022/09/09 04:43:22;;;;;;;16.03;14.47;;;;;;;11.23;100.00;96809.78;4939697;28;20984;-55
2022/09/09 04:45:52;;;;;;;15.27;13.87;;;;;;;11.24;100.00;96803.47;5002892;28;20208;-57
2022/09/09 04:48:20;;;;;;;14.93;13.73;;;;;;;11.26;100.00;96809.41;4990064;28;20213;-50
2022/09/09 04:50:56;;;;;;;14.13;12.93;;;;;;;11.26;100.00;96806.75;4987681;28;20311;-58
2022/09/09 04:53:25;;;;;;;16.27;14.57;;;;;;;11.29;100.00;96809.00;4961519;28;20218;-58
2022/09/09 04:56:01;;;;;;;15.90;14.30;;;;;;;11.34;100.00;96810.25;5006254;28;21002;-57
2022/09/09 04:58:29;;;;;;;15.27;13.53;;;;;;;11.37;100.00;96802.72;4990102;28;20238;-57
2022/09/09 05:01:04;;;;;;;16.30;14.90;;;;;;;11.48;100.00;96809.25;5004207;28;20212;-59
2022/09/09 05:03:33;;;;;;;16.77;15.13;;;;;;;11.57;100.00;96805.44;4990247;28;21167;-53
2022/09/09 05:06:08;;;;;;;17.60;15.87;;;;;;;11.67;100.00;96804.22;4992184;28;20608;-59
2022/09/09 05:08:37;;;;;;;18.07;16.30;;;;;;;11.84;100.00;96808.13;4960159;28;20234;-59
2022/09/09 05:11:14;;;;;;;18.33;16.57;;;;;;;11.94;100.00;96804.28;4960735;28;20669;-59
2022/09/09 05:13:42;;;;;;;17.13;15.70;;;;;;;12.15;100.00;96804.13;5001106;28;20285;-58
2022/09/09 05:16:11;;;;;;;20.23;18.33;;;;;;;12.41;100.00;96804.31;5002618;28;20236;-60
2022/09/09 05:18:40;;;;;;;18.30;16.70;;;;;;;12.55;100.00;96803.31;5003800;28;20204;-60
2022/09/09 05:21:08;;;;;;;17.97;16.37;;;;;;;12.59;100.00;96788.59;4998837;28;20224;-58
2022/09/09 05:23:36;;;;;;;17.57;16.07;;;;;;;12.52;100.00;96803.72;4976589;28;20209;-58
2022/09/09 05:26:07;;;;;;;17.13;15.63;;;;;;;12.57;100.00;96800.44;4958613;28;20213;-60
2022/09/09 05:28:36;;;;;;;18.00;16.40;;;;;;;12.55;100.00;96805.97;4980264;28;20275;-57
2022/09/09 05:31:07;;;;;;;16.97;15.43;;;;;;;12.53;100.00;96797.41;5003278;28;20208;-60
2022/09/09 05:33:36;;;;;;;18.17;16.63;;;;;;;12.70;100.00;96807.59;5002754;28;20224;-59
2022/09/09 05:36:07;;;;;;;18.43;16.83;;;;;;;12.78;100.00;96807.34;4998775;28;20212;-59
2022/09/09 05:38:36;;;;;;;17.60;16.10;;;;;;;12.90;100.00;96820.84;5004553;28;20243;-55
2022/09/09 05:41:05;;;;;;;17.97;16.43;;;;;;;12.88;100.00;96809.59;4987949;28;20239;-59
2022/09/09 05:43:35;;;;;;;17.80;16.40;;;;;;;12.94;100.00;96821.25;4965784;28;20204;-57
2022/09/09 05:46:05;;;;;;;17.30;15.90;;;;;;;13.00;100.00;96826.53;4994736;28;20205;-58
2022/09/09 05:48:34;;;;;;;17.70;16.07;;;;;;;12.87;100.00;96830.03;5006110;28;20200;-58
2022/09/09 05:51:06;;;;;;;16.87;15.57;;;;;;;12.91;100.00;96819.00;5005276;28;20619;-57
2022/09/09 05:53:35;;;;;;;17.43;15.93;;;;;;;12.85;100.00;96818.00;5004192;28;20504;-58
2022/09/09 05:56:05;;;;;;;17.40;16.10;;;;;;;12.80;100.00;96807.97;4987829;28;20205;-59
2022/09/09 05:58:35;;;;;;;21.17;19.37;;;;;;;12.85;100.00;96831.28;4968118;28;20223;-57
2022/09/09 06:01:05;;;;;;;16.83;15.47;;;;;;;12.96;100.00;96821.88;4996092;28;20236;-57
2022/09/09 06:03:34;;;;;;;16.70;15.47;;;;;;;12.94;100.00;96823.91;4994531;28;20221;-56
2022/09/09 06:06:05;;;;;;;17.07;15.50;;;;;;;12.98;100.00;96823.28;5002485;28;20204;-59
2022/09/09 06:08:34;;;;;;;15.97;14.67;;;;;;;12.95;100.00;96821.03;5009184;28;20388;-57
2022/09/09 06:11:03;;;;;;;16.63;15.33;;;;;;;12.99;100.00;96830.22;5004760;28;20303;-56
2022/09/09 06:13:32;;;;;;;16.80;15.47;;;;;;;13.03;100.00;96828.78;4945397;28;21622;-61
2022/09/09 06:16:01;;;;;;;15.30;14.13;;;;;;;13.18;100.00;96827.72;4990061;28;20213;-60
2022/09/09 06:18:30;;;;;;;14.53;13.43;;;;;;;13.34;100.00;96828.28;5008259;28;20530;-62
2022/09/09 06:21:00;;;;;;;15.43;13.80;;;;;;;13.39;100.00;96837.28;5001618;28;20209;-60
2022/09/09 06:23:29;;;;;;;14.70;13.60;;;;;;;13.40;100.00;96832.75;5006549;28;20473;-61
2022/09/09 06:26:05;;;;;;;13.80;12.43;;;;;;;13.48;100.00;96835.25;5004035;28;20213;-60
2022/09/09 06:28:33;;;;;;;13.33;12.43;;;;;;;13.50;100.00;96835.00;4947544;28;20941;-56
2022/09/09 06:31:04;;;;;;;13.87;12.60;;;;;;;13.60;100.00;96825.56;4989276;28;20220;-60
2022/09/09 06:33:34;;;;;;;12.80;11.90;;;;;;;13.86;100.00;96838.94;5007400;28;20598;-59
2022/09/09 06:36:03;;;;;;;12.70;11.03;;;;;;;13.81;100.00;96831.56;5002179;28;20204;-57
2022/09/09 06:38:31;;;;;;;11.67;10.47;;;;;;;13.83;100.00;96826.88;5003966;28;20862;-59
2022/09/09 06:41:01;;;;;;;11.07;10.23;;;;;;;13.91;100.00;96825.78;5004340;28;20213;-57
2022/09/09 06:43:30;;;;;;;11.00;10.20;;;;;;;14.03;100.00;96823.28;4962364;28;20209;-62
2022/09/09 06:45:59;;;;;;;10.07;9.17;;;;;;;14.54;100.00;96825.97;4986042;28;20756;-59
2022/09/09 06:48:29;;;;;;;10.73;9.67;;;;;;;14.99;100.00;96825.81;4990085;28;20216;-60
2022/09/09 06:51:04;;;;;;;9.73;8.93;;;;;;;14.98;100.00;96820.66;5006766;28;20702;-60
2022/09/09 06:53:33;;;;;;;10.00;9.20;;;;;;;15.29;100.00;96816.25;4999618;28;20231;-60
2022/09/09 06:56:02;;;;;;;8.27;7.63;;;;;;;15.52;100.00;96818.22;5004085;28;20204;-57
2022/09/09 06:58:30;;;;;;;8.60;7.90;;;;;;;15.98;100.00;96821.34;4998644;28;20199;-57
2022/09/09 07:01:04;;;;;;;7.53;6.83;;;;;;;16.20;100.00;96818.13;4945743;28;20216;-59
2022/09/09 07:03:34;;;;;;;7.17;6.53;;;;;;;16.32;100.00;96821.66;4990796;28;20441;-60
2022/09/09 07:06:04;;;;;;;6.20;5.80;;;;;;;16.19;100.00;96817.34;4997800;28;20772;-57
2022/09/09 07:08:32;;;;;;;6.80;6.20;;;;;;;16.44;100.00;96823.53;5007258;28;20359;-59
2022/09/09 07:11:04;;;;;;;6.57;5.97;;;;;;;16.52;100.00;96819.72;5004299;28;20205;-58
2022/09/09 07:13:38;;;;;;;6.37;5.97;;;;;;;16.95;100.00;96815.88;4998447;28;20226;-56
2022/09/09 07:16:08;;;;;;;6.20;5.73;;;;;;;17.18;100.00;96815.06;4949976;28;20707;-57
2022/09/09 07:18:37;;;;;;;6.07;5.57;;;;;;;17.57;100.00;96827.09;4941310;28;20729;-59
2022/09/09 07:21:06;;;;;;;5.87;5.47;;;;;;;17.62;100.00;96824.50;5000155;28;20674;-53
2022/09/09 07:23:35;;;;;;;5.83;5.47;;;;;;;16.93;100.00;96821.44;5001532;28;20900;-52
2022/09/09 07:26:09;;;;;;;5.83;5.33;;;;;;;16.72;100.00;96827.41;4999700;28;20795;-56
2022/09/09 07:28:37;;;;;;;5.60;5.30;;;;;;;16.31;100.00;96828.06;5004187;28;20399;-54
2022/09/09 07:31:06;;;;;;;5.87;5.30;;;;;;;16.22;100.00;96831.28;5005283;28;20212;-54
2022/09/09 07:33:37;;;;;;;6.00;5.60;;;;;;;15.93;100.00;96831.91;4954251;28;20306;-56
2022/09/09 07:36:08;;;;;;;5.07;4.77;;;;;;;15.73;100.00;96832.94;5004207;28;20310;-53
2022/09/09 07:38:40;;;;;;;6.17;5.57;;;;;;;15.58;100.00;96828.00;4986981;28;20511;-55
2022/09/09 07:41:11;;;;;;;6.30;5.20;;;;;;;15.58;100.00;96832.53;5002548;28;20212;-55
2022/09/09 07:43:40;;;;;;;6.97;6.47;;;;;;;15.67;100.00;96833.84;5003582;28;20226;-56
2022/09/09 07:46:09;;;;;;;5.63;5.07;;;;;;;15.59;100.00;96836.84;5009369;28;20202;-56
2022/09/09 07:48:40;;;;;;;5.50;5.13;;;;;;;15.70;100.00;96838.72;4951163;28;21637;-60
2022/09/09 07:51:11;;;;;;;5.07;4.77;;;;;;;15.56;100.00;96848.75;5000959;28;20619;-60
2022/09/09 07:53:39;;;;;;;5.57;5.13;;;;;;;15.49;100.00;96853.38;4981283;28;20644;-53
2022/09/09 07:56:10;;;;;;;5.50;5.03;;;;;;;15.47;100.00;96855.44;5003850;28;20207;-54
2022/09/09 07:58:38;;;;;;;5.23;4.83;;;;;;;15.50;100.00;96855.00;5001664;28;20368;-55
2022/09/09 08:01:11;;;;;;;5.33;4.87;;;;;;;15.25;100.00;96847.88;5001849;28;20212;-56
2022/09/09 08:03:40;;;;;;;5.77;5.20;;;;;;;15.05;100.00;96856.94;4960506;28;20970;-60
2022/09/09 08:06:09;;;;;;;5.53;5.03;;;;;;;15.04;100.00;96863.31;5003799;28;20204;-59
2022/09/09 08:08:38;;;;;;;8.50;7.70;;;;;;;15.02;100.00;96870.72;5007394;28;20200;-62
2022/09/09 08:11:09;;;;;;;7.20;6.70;;;;;;;15.23;100.00;96881.19;4986865;28;20205;-60
2022/09/09 08:13:38;;;;;;;6.27;5.77;;;;;;;15.08;100.00;96889.53;5003571;28;21346;-60
2022/09/09 08:16:08;;;;;;;7.97;7.30;;;;;;;15.04;100.00;96879.31;5010372;28;20208;-59
2022/09/09 08:18:36;;;;;;;6.20;5.33;;;;;;;14.96;100.00;96881.44;5000232;28;20493;-61
2022/09/09 08:21:11;;;;;;;7.70;6.97;;;;;;;15.01;100.00;96887.75;4967919;28;20212;-61
2022/09/09 08:23:41;;;;;;;8.73;6.57;;;;;;;15.06;100.00;96892.41;5000249;28;20491;-60
2022/09/09 08:26:12;;;;;;;7.47;6.60;;;;;;;15.19;100.00;96888.81;4992258;28;20764;-59
2022/09/09 08:28:41;;;;;;;6.77;6.10;;;;;;;15.41;100.00;96891.06;5001806;28;20611;-60
2022/09/09 08:31:11;;;;;;;7.60;6.10;;;;;;;15.30;100.00;96877.38;5008363;28;20719;-61
2022/09/09 08:33:41;;;;;;;7.93;6.77;;;;;;;15.20;100.00;96887.75;5004917;28;20642;-57
2022/09/09 08:36:13;;;;;;;6.87;6.37;;;;;;;15.08;100.00;96889.53;4964996;28;20226;-59
2022/09/09 08:38:41;;;;;;;5.90;5.40;;;;;;;14.90;100.00;96893.78;5004538;28;20729;-60
2022/09/09 08:41:21;;;;;;;10.03;5.97;;;;;;;14.85;100.00;96890.97;5006880;28;20196;-60
2022/09/09 08:43:52;;;;;;;6.17;5.30;;;;;;;15.02;100.00;96878.72;4994515;28;20540;-57
2022/09/09 08:46:26;;;;;;;6.30;5.80;;;;;;;15.41;100.00;96875.03;5009447;28;20736;-56
2022/09/09 08:48:58;;;;;;;6.43;5.90;;;;;;;15.90;100.00;96886.59;5006519;28;20204;-60
2022/09/09 08:51:29;;;;;;;6.60;6.00;;;;;;;16.21;100.00;96889.25;4963061;28;20244;-57
2022/09/09 08:53:59;;;;;;;5.83;4.93;;;;;;;16.33;100.00;96908.00;5002738;28;20224;-61
2022/09/09 08:56:29;;;;;;;5.67;5.00;;;;;;;16.83;100.00;96901.50;4995703;28;20671;-60
2022/09/09 08:58:58;;;;;;;5.13;4.77;;;;;;;17.02;100.00;96891.53;5008599;28;20212;-61
2022/09/09 09:01:43;;;;;;;5.00;4.60;;;;;;;17.20;100.00;96887.91;5005898;28;20342;-59
2022/09/09 09:04:21;;;;;;;4.83;4.37;;;;;;;17.39;100.00;96895.81;5010161;28;20212;-59
2022/09/09 09:06:58;;;;;;;4.27;3.97;;;;;;;17.44;100.00;96903.16;4961138;28;20460;-60
2022/09/09 09:09:32;;;;;;;4.73;4.40;;;;;;;17.63;100.00;96898.44;5005525;28;20216;-59
2022/09/09 09:12:02;;;;;;;4.50;4.20;;;;;;;17.70;100.00;96887.63;4991612;28;20254;-60
2022/09/09 09:14:33;;;;;;;4.17;3.87;;;;;;;17.95;100.00;96887.28;5006422;28;20223;-59
2022/09/09 09:17:04;;;;;;;4.10;3.80;;;;;;;17.97;100.00;96900.44;5007559;28;20231;-60
2022/09/09 09:19:34;;;;;;;4.97;4.20;;;;;;;18.12;100.00;96895.41;4997447;28;20285;-60
2022/09/09 09:22:08;;;;;;;4.87;3.93;;;;;;;17.90;100.00;96892.56;5004566;28;20632;-56
2022/09/09 09:24:43;;;;;;;6.40;3.67;;;;;;;17.89;100.00;96885.56;4955124;28;20221;-58
2022/09/09 09:27:14;;;;;;;4.00;3.57;;;;;;;17.91;100.00;96892.31;4971175;28;20283;-61
2022/09/09 09:29:44;;;;;;;4.43;4.07;;;;;;;18.02;100.00;96889.88;5005772;28;20200;-58
2022/09/09 09:32:34;;;;;;;5.40;4.90;;;;;;;18.65;100.00;96881.84;4992332;28;20672;-59
2022/09/09 09:35:07;;;;;;;7.07;3.63;;;;;;;18.72;100.00;96881.69;5002142;28;20413;-58
2022/09/09 09:37:37;;;;;;;3.80;3.50;;;;;;;18.72;100.00;96876.31;5008855;28;20208;-57
2022/09/09 09:40:25;;;;;;;4.90;3.27;;;;;;;18.88;100.00;96877.38;4956773;28;20236;-55
2022/09/09 09:42:55;;;;;;;2.90;2.43;;;;;;;19.02;100.00;96883.25;4997852;28;20251;-56
2022/09/09 09:45:31;;;;;;;2.80;2.37;;;;;;;19.26;100.00;96881.19;5005353;28;20212;-55
2022/09/09 09:48:01;;;;;;;2.77;2.57;;;;;;;19.51;100.00;96875.31;4981787;28;20231;-55
2022/09/09 09:50:34;;;;;;;2.70;2.50;;;;;;;19.64;100.00;96871.47;5002168;28;20213;-54
2022/09/09 09:53:06;;;;;;;4.17;2.40;;;;;;;19.77;100.00;96866.75;5001220;28;20228;-57
2022/09/09 09:55:35;;;;;;;1.70;1.60;;;;;;;19.63;100.00;96867.16;5009093;28;20572;-58
2022/09/09 09:58:04;;;;;;;2.00;1.90;;;;;;;19.67;100.00;96860.22;4960843;28;20223;-61
2022/09/09 10:00:37;;;;;;;3.37;2.00;;;;;;;19.48;100.00;96865.09;5003456;28;20212;-59
2022/09/09 10:03:16;;;;;;;6.43;5.93;;;;;;;19.63;100.00;96869.84;4982751;28;20263;-61
2022/09/09 10:05:46;;;;;;;5.30;4.87;;;;;;;19.62;100.00;96865.53;5003154;28;20212;-59
2022/09/09 10:08:18;;;;;;;2.93;2.37;;;;;;;19.46;100.00;96866.38;5003108;28;20390;-59
2022/09/09 10:10:56;;;;;;;2.40;2.30;;;;;;;19.18;100.00;96866.28;4985558;28;20252;-61
2022/09/09 10:13:28;;;;;;;2.30;1.97;;;;;;;19.05;100.00;96866.66;5006187;28;20197;-61
2022/09/09 10:16:07;;;;;;;2.30;2.03;;;;;;;18.64;100.00;96867.63;5001298;28;20669;-57
2022/09/09 10:18:42;;;;;;;2.30;2.10;;;;;;;18.98;100.00;96866.81;5010260;28;20204;-59
2022/09/09 10:21:20;;;;;;;2.40;2.30;;;;;;;18.98;100.00;96853.38;4965447;28;20624;-59
2022/09/09 10:24:10;;;;;;;2.17;2.07;;;;;;;18.99;100.00;96863.06;5002213;28;20669;-58
2022/09/09 10:26:43;;;;;;;2.73;2.47;;;;;;;19.26;100.00;96865.06;4984829;28;20957;-59
2022/09/09 10:29:27;;;;;;;2.30;2.10;;;;;;;19.16;100.00;96873.00;4986412;28;21029;-57
2022/09/09 10:32:04;;;;;;;2.27;2.13;;;;;;;19.66;100.00;96860.44;5001133;28;20465;-59
2022/09/09 10:34:46;;;;;;;2.10;1.90;;;;;;;19.99;100.00;96857.91;5009369;28;20257;-57
2022/09/09 10:37:23;;;;;;;2.00;1.90;;;;;;;20.24;100.00;96860.81;5000070;28;20212;-58
2022/09/09 10:40:00;;;;;;;2.53;2.07;;;;;;;20.44;100.00;96856.72;5003736;28;20711;-60
2022/09/09 10:42:32;;;;;;;1.90;1.80;;;;;;;20.64;100.00;96849.88;4990367;28;20262;-55
2022/09/09 10:45:12;;;;;;;4.97;2.00;;;;;;;20.79;100.00;96850.03;4959594;28;20691;-57
2022/09/09 10:47:54;;;;;;;3.93;1.70;;;;;;;20.01;100.00;96850.41;5000846;28;20254;-58
2022/09/09 10:50:43;;;;;;;1.43;1.43;;;;;;;19.87;100.00;96848.06;5007565;28;21116;-53
2022/09/09 10:53:48;;;;;;;1.73;1.50;;;;;;;20.11;100.00;96850.50;5008489;28;20756;-59
2022/09/09 10:56:19;;;;;;;4.33;1.97;;;;;;;20.38;100.00;96844.28;5002973;28;20205;-57
2022/09/09 10:58:50;;;;;;;1.37;1.27;;;;;;;20.41;100.00;96840.25;4962858;28;20673;-59
2022/09/09 11:01:22;;;;;;;1.80;1.70;;;;;;;20.55;100.00;96838.78;5004613;28;20451;-57
2022/09/09 11:04:01;;;;;;;5.97;1.40;;;;;;;20.37;100.00;96839.97;4996840;28;20205;-55
2022/09/09 11:06:33;;;;;;;1.50;1.40;;;;;;;20.29;100.00;96835.88;4985341;28;20219;-56
2022/09/09 11:09:04;;;;;;;1.63;1.53;;;;;;;19.95;100.00;96838.75;5001635;28;20333;-59
2022/09/09 11:11:38;;;;;;;1.13;1.13;;;;;;;19.64;100.00;96836.53;5000461;28;20813;-57
2022/09/09 11:14:12;;;;;;;1.90;1.60;;;;;;;19.67;100.00;96837.88;5001399;28;20608;-59
2022/09/09 11:16:43;;;;;;;2.33;1.47;;;;;;;19.66;100.00;96834.41;4956685;28;20238;-52
2022/09/09 11:19:16;;;;;;;1.90;1.50;;;;;;;19.64;100.00;96836.53;5004078;28;20231;-56
2022/09/09 11:21:47;;;;;;;3.57;2.00;;;;;;;19.88;100.00;96835.44;4983414;28;20582;-58
2022/09/09 11:24:22;;;;;;;3.13;1.80;;;;;;;19.88;100.00;96844.28;5007587;28;20208;-54
2022/09/09 11:26:54;;;;;;;4.10;1.80;;;;;;;19.80;100.00;96844.75;4978600;28;20216;-61
2022/09/09 11:30:04;;;;;;;2.07;1.87;;;;;;;20.08;100.00;96838.38;4999486;28;20893;-54
2022/09/09 11:32:52;;;;;;;1.70;1.60;;;;;;;20.23;100.00;96840.38;4919382;28;20242;-57
2022/09/09 11:35:32;;;;;;;2.00;1.40;;;;;;;20.40;100.00;96842.16;5000812;28;20331;-57
2022/09/09 11:38:14;;;;;;;2.53;1.33;;;;;;;20.23;100.00;96844.97;4985308;28;20215;-57
2022/09/09 11:40:43;;;;;;;1.37;1.20;;;;;;;20.01;100.00;96842.31;5007065;28;20565;-57